Airfield :
LOGIN :

Register | Disclaimer

   EN    FR    IT 

 










Legend :    VFR   Marginal VFR   IFR   Intensive IFR   Very Intensive IFR
Visi :
Ceiling :
>= 8 km
>= 3000ft
5 to 8 km
1000 to 3000 ft
1500m to 5 km
500 to 1000 ft
800 to 1500m
200 to 500 ft
< 800m
< 200 ft
Symbols :   Thunderstorms  Fog  Heavy snow  Heavy precipitations  Wind > 20 kt
SIGMETs :     Misc.  Thunderstorms  Icing  Turbulence  Mountain Waves  Volcanic Ashes







- Airport Elevation : 313 ft
- Download approach charts


LFQA - Reims-Prunay

CURRENT METAR :
  • 210400Z AUTO VRB02KT 3000 BR BKN008 OVC012 16/15 Q1012

EXPIRED METARs :
  • 210330Z AUTO 26005KT 4400 BR OVC008 17/16 Q1011
  • 210300Z AUTO 26006KT 230V290 4000 BR OVC006 17/16 Q1011
  • 210230Z AUTO 26004KT 210V290 3900 BR OVC007 16/16 Q1011
  • 210200Z AUTO 26003KT 4000 BR BKN007 16/16 Q1011
  • 210130Z AUTO 27004KT 5000 BR BKN007 BKN120 16/16 Q1011

TAF N/A
No reported NOTAMs for that airfield.



MET'MAP, your aeronautical weather chart ! - Copyright ORBIFLY December 2007 - Disclaimer

ORBIFLY MET'MAP TEAM :

Programming & Development : Alexandra Zaïnal
Concept & Development : Baudouin d'Aumeries
Co-Development & Prog : Marc-Olivier Méhu
Technical & hardware support : Manuel Goepfert

Contact : metmap@orbifly.com




SOURCES & CREDITS :

   NOAA